Terminal Aerodrome Forecast
Issued by NWS Wilmington, OH

Current Version | Previous Version | Text Only | Print | Product List | Glossary On
Versions: 1 2 3 4 5 6 7 8 9 10 11 12 13 14 15 16 17 18 19 20 21 22 23 24 25 26 27 28 29 30
000
FTUS41 KILN 302000 AAA
TAFILN
TAF AMD
KILN 302056Z 3021/3118 33011KT P6SM BKN030
     FM302300 35005KT P6SM FEW040
     FM310300 VRB04KT P6SM SKC
     FM311300 22008KT P6SM SCT250=

USA.gov is the U.S. government's official web portal to all federal, state and local government web resources and services.